Time;durP1;ratioP1;P1;durP2;ratioP2;P2;SDS_P1;SDS_P2;PMS_P1;PMS_P2;Temp;Humidity;BMP_temperature;BMP_pressure;BME280_temperature;BME280_humidity;BME280_pressure;Samples;Min_cycle;Max_cycle;Signal;HPM_P1;HPM_P2
2021/12/19 00:09:33;;;;;;;10.88;6.60;;;7.20;99.90;;;;;;4943962;29;20102;-66
2021/12/19 00:11:59;;;;;;;12.13;7.32;;;7.30;99.90;;;;;;4939538;28;20535;-66
2021/12/19 00:14:25;;;;;;;13.48;7.10;;;7.20;99.90;;;;;;4939487;29;20313;-66
2021/12/19 00:16:51;;;;;;;12.90;6.97;;;7.30;99.90;;;;;;4945862;28;20059;-66
2021/12/19 00:19:18;;;;;;;15.70;7.18;;;7.30;99.90;;;;;;4947154;28;20504;-66
2021/12/19 00:21:44;;;;;;;12.18;7.25;;;7.30;99.90;;;;;;4939177;28;20094;-66
2021/12/19 00:24:10;;;;;;;12.90;7.78;;;7.30;99.90;;;;;;4941840;28;20522;-66
2021/12/19 00:26:36;;;;;;;11.52;6.80;;;7.20;99.90;;;;;;4955014;28;20189;-66
2021/12/19 00:29:03;;;;;;;12.63;6.97;;;7.30;99.90;;;;;;4965842;28;20077;-66
2021/12/19 00:31:30;;;;;;;11.98;7.15;;;7.30;99.90;;;;;;4962404;28;20130;-66
2021/12/19 00:33:56;;;;;;;10.93;7.15;;;7.30;99.90;;;;;;4970519;28;20041;-66
2021/12/19 00:36:22;;;;;;;15.90;8.68;;;7.30;99.90;;;;;;4961482;28;20047;-66
2021/12/19 00:38:48;;;;;;;14.68;8.10;;;7.20;99.90;;;;;;4947554;28;20042;-66
2021/12/19 00:41:14;;;;;;;16.17;8.07;;;7.30;99.90;;;;;;4960455;28;20062;-66
2021/12/19 00:43:54;;;;;;;13.93;8.00;;;7.30;99.90;;;;;;4965141;28;20053;-66
2021/12/19 00:46:22;;;;;;;15.07;9.20;;;7.30;99.90;;;;;;4968301;28;20050;-66
2021/12/19 00:48:51;;;;;;;12.90;8.32;;;7.30;99.90;;;;;;4963600;28;20561;-66
2021/12/19 00:51:22;;;;;;;14.65;9.43;;;7.30;99.90;;;;;;4965576;28;20043;-66
2021/12/19 00:53:49;;;;;;;13.80;8.75;;;7.30;99.90;;;;;;4965696;28;20450;-66
2021/12/19 00:56:15;;;;;;;17.98;9.32;;;7.30;99.90;;;;;;4962261;28;20043;-66
2021/12/19 00:58:43;;;;;;;17.80;10.30;;;7.30;99.90;;;;;;4969482;28;20478;-66
2021/12/19 01:01:10;;;;;;;19.65;10.45;;;7.30;99.90;;;;;;4968972;28;20537;-66
2021/12/19 01:03:37;;;;;;;21.42;10.02;;;7.30;99.90;;;;;;4949386;28;20442;-66
2021/12/19 01:06:04;;;;;;;21.05;10.23;;;7.30;99.90;;;;;;4964539;28;20039;-66
2021/12/19 01:08:30;;;;;;;19.73;10.57;;;7.30;99.90;;;;;;4966044;28;20085;-66
2021/12/19 01:10:56;;;;;;;15.35;9.00;;;7.30;99.90;;;;;;4967915;28;20511;-66
2021/12/19 01:13:22;;;;;;;10.60;7.28;;;7.30;99.90;;;;;;4961193;28;20073;-66
2021/12/19 01:15:50;;;;;;;13.15;6.45;;;7.30;99.90;;;;;;4969687;28;20688;-66
2021/12/19 01:18:16;;;;;;;7.85;4.82;;;7.30;99.90;;;;;;4965926;28;20483;-66
2021/12/19 01:20:42;;;;;;;5.80;3.88;;;7.30;99.90;;;;;;4965922;28;20093;-66
2021/12/19 01:23:10;;;;;;;7.13;3.75;;;7.30;99.90;;;;;;4942984;28;20042;-66
2021/12/19 01:25:36;;;;;;;6.57;4.00;;;7.20;99.90;;;;;;4962337;28;20498;-66
2021/12/19 01:28:02;;;;;;;5.60;4.03;;;7.30;99.90;;;;;;4965973;28;20118;-66
2021/12/19 01:30:28;;;;;;;10.45;4.25;;;7.30;99.90;;;;;;4969831;28;20050;-66
2021/12/19 01:32:54;;;;;;;8.65;4.55;;;7.30;99.90;;;;;;4960169;28;20050;-66
2021/12/19 01:35:22;;;;;;;11.65;5.35;;;7.30;99.90;;;;;;4942075;28;20395;-66
2021/12/19 01:37:48;;;;;;;14.00;6.07;;;7.30;99.90;;;;;;4962509;28;20039;-66
2021/12/19 01:40:17;;;;;;;8.73;5.88;;;7.30;99.90;;;;;;4967279;28;20041;-66
2021/12/19 01:42:45;;;;;;;8.18;5.28;;;7.30;99.90;;;;;;4967233;28;20442;-66
2021/12/19 01:45:14;;;;;;;7.47;4.30;;;7.30;99.90;;;;;;4965754;28;20038;-66
2021/12/19 01:47:40;;;;;;;5.10;3.65;;;7.30;99.90;;;;;;4964263;28;20465;-66
2021/12/19 01:50:08;;;;;;;6.38;3.20;;;7.30;99.90;;;;;;4966626;28;20539;-66
2021/12/19 01:52:34;;;;;;;3.08;2.08;;;7.30;99.90;;;;;;4963740;28;20035;-66
2021/12/19 01:55:00;;;;;;;3.83;2.00;;;7.30;99.90;;;;;;4961642;28;20086;-66
2021/12/19 01:57:26;;;;;;;4.75;1.67;;;7.20;99.90;;;;;;4965407;28;20653;-66
2021/12/19 01:59:55;;;;;;;6.35;2.05;;;7.20;99.90;;;;;;4964034;28;20046;-66
2021/12/19 02:02:22;;;;;;;3.40;2.35;;;7.20;99.90;;;;;;4966456;28;20070;-66
2021/12/19 02:04:48;;;;;;;4.60;2.35;;;7.20;99.90;;;;;;4963575;28;20092;-66
2021/12/19 02:07:14;;;;;;;3.67;2.17;;;7.20;99.90;;;;;;4967668;28;20486;-66
2021/12/19 02:09:43;;;;;;;4.50;1.80;;;7.20;99.90;;;;;;4965559;28;20043;-66
2021/12/19 02:12:09;;;;;;;3.78;1.88;;;7.20;99.90;;;;;;4961551;28;20042;-66
2021/12/19 02:14:36;;;;;;;6.28;1.70;;;7.20;99.90;;;;;;4965438;28;20095;-66
2021/12/19 02:17:02;;;;;;;2.97;1.77;;;7.20;99.90;;;;;;4962782;28;20114;-66
2021/12/19 02:19:33;;;;;;;3.65;1.40;;;7.20;99.90;;;;;;4947745;28;20125;-66
2021/12/19 02:21:59;;;;;;;2.95;1.17;;;7.20;99.90;;;;;;4947638;28;20499;-66
2021/12/19 02:24:25;;;;;;;2.25;1.00;;;7.20;99.90;;;;;;4962492;28;20078;-66
2021/12/19 02:26:51;;;;;;;2.20;0.70;;;7.20;99.90;;;;;;4980311;28;20055;-66
2021/12/19 02:29:16;;;;;;;2.72;0.68;;;7.20;99.90;;;;;;4965474;28;20038;-66
2021/12/19 02:31:42;;;;;;;1.48;0.70;;;7.20;99.90;;;;;;4958743;28;20035;-66
2021/12/19 02:34:19;;;;;;;1.20;0.50;;;7.10;99.90;;;;;;4962699;28;20116;-66
2021/12/19 02:50:12;;;;;;;2.25;0.68;;;7.10;99.90;;;;;;4963523;28;20051;-66
2021/12/19 02:52:38;;;;;;;3.03;1.13;;;7.10;99.90;;;;;;4949241;28;20502;-66
2021/12/19 02:55:05;;;;;;;2.15;0.82;;;7.00;99.90;;;;;;4959905;28;20137;-66
2021/12/19 02:57:31;;;;;;;3.45;1.05;;;7.00;99.90;;;;;;4964916;28;20399;-66
2021/12/19 02:59:57;;;;;;;2.05;0.80;;;7.00;99.90;;;;;;4964389;28;20030;-66
2021/12/19 03:02:23;;;;;;;2.40;0.63;;;7.10;99.90;;;;;;4959284;28;20035;-66
2021/12/19 03:04:57;;;;;;;2.15;0.80;;;7.00;99.90;;;;;;4965107;28;20047;-66
2021/12/19 03:07:25;;;;;;;1.30;0.75;;;7.00;99.90;;;;;;4964578;28;20043;-66
2021/12/19 03:12:47;;;;;;;1.65;0.60;;;6.90;99.90;;;;;;4958442;28;20047;-66
2021/12/19 03:18:12;;;;;;;1.67;0.65;;;6.90;99.90;;;;;;4959814;28;20057;-66
2021/12/19 03:20:39;;;;;;;1.75;0.93;;;6.90;99.90;;;;;;4965295;28;20110;-66
2021/12/19 03:23:07;;;;;;;1.48;0.80;;;6.90;99.90;;;;;;4955730;28;20039;-66
2021/12/19 03:25:34;;;;;;;1.52;0.70;;;6.80;99.90;;;;;;4959004;28;20045;-66
2021/12/19 03:28:02;;;;;;;2.08;0.60;;;6.80;99.90;;;;;;4941405;28;20114;-66
2021/12/19 03:30:32;;;;;;;1.25;0.65;;;6.90;99.90;;;;;;4964462;28;20439;-66
2021/12/19 03:32:58;;;;;;;3.83;0.90;;;6.90;99.90;;;;;;4957351;28;20064;-66
2021/12/19 03:35:24;;;;;;;2.95;0.80;;;6.90;99.90;;;;;;4957184;28;20058;-67
2021/12/19 03:37:52;;;;;;;3.08;1.02;;;6.90;99.90;;;;;;4957665;28;20034;-66
2021/12/19 03:40:24;;;;;;;3.63;1.08;;;6.90;99.90;;;;;;4963600;28;20431;-66
2021/12/19 03:42:53;;;;;;;2.58;0.70;;;6.90;99.90;;;;;;4961337;28;20039;-66
2021/12/19 03:45:23;;;;;;;2.25;1.10;;;6.90;99.90;;;;;;4962293;28;20707;-66
2021/12/19 03:47:51;;;;;;;3.08;0.90;;;6.90;99.90;;;;;;4959563;28;20070;-66
2021/12/19 03:50:21;;;;;;;2.25;0.60;;;6.90;99.90;;;;;;4963489;28;20035;-66
2021/12/19 03:52:48;;;;;;;2.13;0.75;;;6.90;99.90;;;;;;4959020;28;20050;-66
2021/12/19 03:55:14;;;;;;;1.88;0.88;;;6.90;99.90;;;;;;4962093;28;20054;-66
2021/12/19 03:57:40;;;;;;;2.72;0.90;;;6.90;99.90;;;;;;4963545;28;20388;-66
2021/12/19 04:00:10;;;;;;;3.83;0.77;;;6.90;99.90;;;;;;4965256;28;20031;-66
2021/12/19 04:02:36;;;;;;;2.28;1.10;;;6.90;99.90;;;;;;4961621;28;20047;-66
2021/12/19 04:05:03;;;;;;;2.30;0.82;;;6.90;99.90;;;;;;4964278;28;20047;-66
2021/12/19 04:07:29;;;;;;;3.47;1.00;;;6.90;99.90;;;;;;4967574;28;20039;-66
2021/12/19 04:09:55;;;;;;;2.88;0.93;;;6.90;99.90;;;;;;4962709;28;20046;-66
2021/12/19 04:12:26;;;;;;;2.20;1.20;;;6.90;99.90;;;;;;4971097;28;20082;-66
2021/12/19 04:14:53;;;;;;;4.13;1.50;;;6.90;99.90;;;;;;4971626;28;20495;-66
2021/12/19 04:17:18;;;;;;;4.85;1.60;;;6.90;99.90;;;;;;4967791;28;20096;-66
2021/12/19 04:19:44;;;;;;;3.47;1.90;;;7.00;99.90;;;;;;4962147;28;20043;-66
2021/12/19 04:22:09;;;;;;;3.72;1.40;;;6.90;99.90;;;;;;4966805;28;20039;-66
2021/12/19 04:24:35;;;;;;;3.65;1.55;;;6.90;99.90;;;;;;4961991;28;20042;-66
2021/12/19 04:27:01;;;;;;;2.97;1.70;;;6.90;99.90;;;;;;4949490;28;20134;-66
2021/12/19 04:29:27;;;;;;;3.63;1.92;;;6.90;99.90;;;;;;4961565;28;20043;-66
2021/12/19 04:31:54;;;;;;;3.95;1.92;;;6.90;99.90;;;;;;4966544;28;20041;-66
2021/12/19 04:34:20;;;;;;;3.58;1.65;;;6.80;99.90;;;;;;4958770;28;20039;-66
2021/12/19 04:36:50;;;;;;;5.43;1.85;;;6.80;99.90;;;;;;4965437;28;20105;-66
2021/12/19 04:39:41;;;;;;;3.55;1.77;;;6.80;99.90;;;;;;4959422;28;20455;-66
2021/12/19 04:50:59;;;;;;;3.72;1.40;;;6.80;99.90;;;;;;4947942;28;20061;-66
2021/12/19 04:58:46;;;;;;;4.37;1.10;;;6.70;99.90;;;;;;4960003;28;20447;-66
2021/12/19 05:14:33;;;;;;;4.18;0.73;;;6.70;99.90;;;;;;4965566;28;20121;-66
2021/12/19 05:17:05;;;;;;;1.58;0.57;;;6.70;99.90;;;;;;4960996;28;20035;-66
2021/12/19 05:19:44;;;;;;;2.67;0.40;;;6.70;99.90;;;;;;4966524;28;20411;-66
2021/12/19 05:22:10;;;;;;;1.58;0.40;;;6.70;99.90;;;;;;4962782;28;20041;-66
2021/12/19 05:27:01;;;;;;;3.58;0.60;;;6.70;99.90;;;;;;4963748;28;20055;-66
2021/12/19 05:29:27;;;;;;;3.35;0.80;;;6.70;99.90;;;;;;4943667;28;20058;-66
2021/12/19 05:31:52;;;;;;;3.13;1.05;;;6.70;99.90;;;;;;4969413;28;20487;-66
2021/12/19 05:34:18;;;;;;;6.63;1.50;;;6.70;99.90;;;;;;4961535;28;20511;-66
2021/12/19 05:45:17;;;;;;;5.85;1.73;;;6.70;99.90;;;;;;4967038;28;20126;-66
2021/12/19 05:47:48;;;;;;;8.43;2.33;;;6.70;99.90;;;;;;4960105;28;20050;-66
2021/12/19 05:50:17;;;;;;;11.90;2.83;;;6.70;99.90;;;;;;4967619;28;20041;-66
2021/12/19 05:52:43;;;;;;;7.68;2.90;;;6.80;99.90;;;;;;4964513;28;20050;-66
2021/12/19 05:55:09;;;;;;;7.53;2.17;;;6.80;99.90;;;;;;4959651;28;20042;-66
2021/12/19 05:57:35;;;;;;;11.35;2.80;;;6.80;99.90;;;;;;4967510;28;20045;-66
2021/12/19 06:00:03;;;;;;;9.20;3.20;;;6.80;99.90;;;;;;4959549;28;20047;-66
2021/12/19 06:02:29;;;;;;;11.88;3.55;;;6.80;99.90;;;;;;4966048;28;20110;-66
2021/12/19 06:04:55;;;;;;;16.42;3.83;;;6.90;99.90;;;;;;4957614;28;20043;-66
2021/12/19 06:07:21;;;;;;;15.20;4.07;;;6.80;99.90;;;;;;4967086;28;20085;-66
2021/12/19 06:09:46;;;;;;;10.05;3.50;;;6.90;99.90;;;;;;4951522;28;20137;-66
2021/12/19 06:12:12;;;;;;;6.50;3.10;;;6.90;99.90;;;;;;4960121;28;20437;-66
2021/12/19 06:14:38;;;;;;;15.43;4.00;;;6.90;99.90;;;;;;4967304;28;20411;-66
2021/12/19 06:17:04;;;;;;;12.73;3.83;;;6.90;99.90;;;;;;4965736;28;20118;-66
2021/12/19 06:19:30;;;;;;;16.55;4.78;;;6.90;99.90;;;;;;4959877;28;20043;-66
2021/12/19 06:21:56;;;;;;;10.73;4.35;;;6.90;99.90;;;;;;4944521;28;20062;-66
2021/12/19 06:24:22;;;;;;;21.67;13.00;;;6.90;99.90;;;;;;4960587;28;20426;-66
2021/12/19 06:26:47;;;;;;;14.27;7.07;;;7.00;99.90;;;;;;4947847;28;20065;-66
2021/12/19 06:29:13;;;;;;;17.75;6.35;;;7.00;99.90;;;;;;4962881;28;20519;-66
2021/12/19 06:31:39;;;;;;;17.80;7.22;;;6.90;99.90;;;;;;4967998;28;20119;-66
2021/12/19 06:34:05;;;;;;;18.38;7.78;;;6.90;99.90;;;;;;4967160;28;20111;-66
2021/12/19 06:36:31;;;;;;;18.88;7.78;;;7.00;99.90;;;;;;4964826;28;20144;-66
2021/12/19 06:38:57;;;;;;;17.50;8.55;;;7.00;99.90;;;;;;4960520;28;20042;-66
2021/12/19 06:41:23;;;;;;;15.60;9.00;;;7.00;99.90;;;;;;4960413;28;20122;-66
2021/12/19 06:43:49;;;;;;;20.90;8.93;;;7.00;99.90;;;;;;4965163;28;20126;-66
2021/12/19 06:46:15;;;;;;;20.38;9.98;;;7.00;99.90;;;;;;4958702;28;20769;-66
2021/12/19 06:48:41;;;;;;;20.50;9.88;;;7.00;99.90;;;;;;4949774;28;20057;-66
2021/12/19 06:51:07;;;;;;;26.10;10.10;;;7.00;99.90;;;;;;4950027;28;20059;-66
2021/12/19 06:53:32;;;;;;;26.25;10.20;;;7.00;99.90;;;;;;4962412;28;20403;-66
2021/12/19 06:55:58;;;;;;;22.40;9.98;;;7.10;99.90;;;;;;4966284;28;20041;-66
2021/12/19 06:58:25;;;;;;;28.02;11.05;;;7.10;99.90;;;;;;4946833;28;20097;-66
2021/12/19 07:00:51;;;;;;;25.73;10.88;;;7.10;99.90;;;;;;4958345;28;20058;-66
2021/12/19 07:03:21;;;;;;;25.08;10.68;;;7.10;99.90;;;;;;4964485;28;20027;-66
2021/12/19 07:05:47;;;;;;;24.38;10.73;;;7.10;99.90;;;;;;4962108;28;20050;-66
2021/12/19 07:08:13;;;;;;;22.95;11.48;;;7.00;99.90;;;;;;4949497;28;20048;-66
2021/12/19 07:10:38;;;;;;;23.73;10.40;;;7.00;99.90;;;;;;4963559;28;20035;-66
2021/12/19 07:13:04;;;;;;;21.75;10.80;;;7.00;99.90;;;;;;4960584;28;20130;-66
2021/12/19 07:15:30;;;;;;;32.10;13.73;;;7.00;99.90;;;;;;4965083;28;20038;-66
2021/12/19 07:17:58;;;;;;;26.27;11.82;;;7.10;99.90;;;;;;4963707;28;20038;-66
2021/12/19 07:20:23;;;;;;;24.63;10.18;;;7.10;99.90;;;;;;4958449;28;20170;-66
2021/12/19 07:22:49;;;;;;;22.50;9.40;;;7.10;99.90;;;;;;4957934;28;20332;-66
2021/12/19 07:25:14;;;;;;;21.13;8.35;;;7.00;99.90;;;;;;4963073;28;20457;-66
2021/12/19 07:27:40;;;;;;;17.58;8.02;;;7.10;99.90;;;;;;4965077;28;20062;-66
2021/12/19 07:30:07;;;;;;;23.92;8.60;;;7.10;99.90;;;;;;4934608;28;20133;-66
2021/12/19 07:32:34;;;;;;;14.75;7.05;;;7.00;99.90;;;;;;4962918;28;20459;-66
2021/12/19 07:35:00;;;;;;;21.17;7.05;;;7.00;99.90;;;;;;4957350;28;20040;-66
2021/12/19 07:37:26;;;;;;;18.70;6.32;;;7.00;99.90;;;;;;4944604;28;20642;-66
2021/12/19 07:40:11;;;;;;;18.45;5.50;;;7.00;99.90;;;;;;4945926;28;20462;-66
2021/12/19 07:42:36;;;;;;;15.18;5.68;;;7.00;99.90;;;;;;4944198;28;20047;-66
2021/12/19 07:45:03;;;;;;;18.85;5.63;;;7.10;99.90;;;;;;4959648;28;20079;-66
2021/12/19 07:47:29;;;;;;;17.50;5.80;;;7.00;99.90;;;;;;4962134;28;20435;-66
2021/12/19 07:49:54;;;;;;;12.60;5.97;;;7.00;99.90;;;;;;4945618;28;20039;-65
2021/12/19 07:52:20;;;;;;;14.68;4.95;;;7.00;99.90;;;;;;4958336;28;20106;-65
2021/12/19 07:54:46;;;;;;;18.48;4.93;;;7.00;99.90;;;;;;4962342;28;20035;-66
2021/12/19 07:57:11;;;;;;;15.13;5.30;;;7.00;99.90;;;;;;4944818;28;20126;-66
2021/12/19 07:59:37;;;;;;;12.23;4.82;;;7.00;99.90;;;;;;4942170;28;20101;-66
2021/12/19 08:02:04;;;;;;;20.90;5.13;;;7.00;99.90;;;;;;4964932;28;20085;-66
2021/12/19 08:04:30;;;;;;;15.40;5.00;;;7.00;99.90;;;;;;4958770;28;20043;-66
2021/12/19 08:06:56;;;;;;;20.83;6.72;;;7.00;99.90;;;;;;4959216;28;20241;-66
2021/12/19 08:09:35;;;;;;;22.02;6.80;;;7.00;99.90;;;;;;4962743;28;20130;-66
2021/12/19 08:12:05;;;;;;;21.40;5.55;;;7.10;99.90;;;;;;4964885;28;20439;-66
2021/12/19 08:14:31;;;;;;;18.38;5.28;;;7.00;99.90;;;;;;4958595;28;20435;-66
2021/12/19 08:16:56;;;;;;;42.15;24.67;;;7.00;99.90;;;;;;4965902;28;20039;-66
2021/12/19 08:19:22;;;;;;;15.48;4.90;;;7.00;99.90;;;;;;4964205;28;20131;-66
2021/12/19 08:21:48;;;;;;;15.50;4.43;;;7.00;99.90;;;;;;4965607;28;20031;-66
2021/12/19 08:24:14;;;;;;;17.20;4.57;;;7.00;99.90;;;;;;4949468;28;20134;-66
2021/12/19 08:26:42;;;;;;;14.45;4.05;;;7.00;99.90;;;;;;4965534;28;20066;-66
2021/12/19 08:29:09;;;;;;;14.20;4.28;;;7.10;99.90;;;;;;4966605;28;20483;-66
2021/12/19 08:31:34;;;;;;;10.25;3.60;;;7.10;99.90;;;;;;4964468;28;20074;-66
2021/12/19 08:34:00;;;;;;;16.35;3.83;;;7.10;99.90;;;;;;4966637;28;20495;-66
2021/12/19 08:36:27;;;;;;;10.57;3.35;;;7.10;99.90;;;;;;4960865;28;20097;-66
2021/12/19 08:38:53;;;;;;;12.20;4.20;;;7.00;99.90;;;;;;4947079;28;20515;-65
2021/12/19 08:41:18;;;;;;;13.63;3.45;;;7.10;99.90;;;;;;4964900;28;20160;-65
2021/12/19 08:43:44;;;;;;;10.95;4.00;;;7.10;99.90;;;;;;4965759;28;20027;-65
2021/12/19 08:46:11;;;;;;;9.27;3.38;;;7.10;99.90;;;;;;4968141;28;20108;-66
2021/12/19 08:48:38;;;;;;;11.95;3.50;;;7.10;99.90;;;;;;4965471;28;20058;-66
2021/12/19 08:51:04;;;;;;;13.30;4.13;;;7.10;99.90;;;;;;4961060;28;20043;-66
2021/12/19 08:53:30;;;;;;;11.98;3.45;;;7.10;99.90;;;;;;4951632;28;20097;-66
2021/12/19 08:55:56;;;;;;;15.35;4.25;;;7.10;99.90;;;;;;4951998;28;20058;-66
2021/12/19 08:58:22;;;;;;;10.25;3.72;;;7.10;99.90;;;;;;4968357;28;20357;-66
2021/12/19 09:00:47;;;;;;;14.75;3.97;;;7.10;99.90;;;;;;4948788;28;20050;-65
2021/12/19 09:03:14;;;;;;;14.23;4.25;;;7.20;99.90;;;;;;4963727;28;20130;-65
2021/12/19 09:05:40;;;;;;;18.75;4.35;;;7.10;99.90;;;;;;4966510;28;20169;-65
2021/12/19 09:08:06;;;;;;;11.63;3.83;;;7.20;99.90;;;;;;4964424;28;20042;-65
2021/12/19 09:10:32;;;;;;;11.73;3.15;;;7.20;99.90;;;;;;4948790;28;20043;-65
2021/12/19 09:12:57;;;;;;;13.20;3.60;;;7.10;99.90;;;;;;4939184;28;20558;-65
2021/12/19 09:15:24;;;;;;;11.40;3.63;;;7.20;99.90;;;;;;4968520;28;20046;-66
2021/12/19 09:17:49;;;;;;;17.33;3.65;;;7.20;99.90;;;;;;4949993;28;20034;-66
2021/12/19 09:20:16;;;;;;;14.98;4.03;;;7.30;99.90;;;;;;4965440;28;20087;-66
2021/12/19 09:22:42;;;;;;;14.35;3.75;;;7.30;99.90;;;;;;4961741;28;20116;-67
2021/12/19 09:25:08;;;;;;;13.70;4.00;;;7.30;99.90;;;;;;4948604;28;20038;-67
2021/12/19 09:27:34;;;;;;;15.30;4.07;;;7.30;99.90;;;;;;4952978;28;20092;-66
2021/12/19 09:30:00;;;;;;;14.23;3.58;;;7.20;99.90;;;;;;4961898;28;20062;-66
2021/12/19 09:32:27;;;;;;;13.75;3.60;;;7.20;99.90;;;;;;4950309;28;20038;-66
2021/12/19 09:34:54;;;;;;;16.40;3.65;;;7.30;99.90;;;;;;4947461;28;20047;-66
2021/12/19 09:37:20;;;;;;;19.40;3.60;;;7.30;99.90;;;;;;4964105;28;20042;-66
2021/12/19 09:39:48;;;;;;;16.58;3.78;;;7.30;99.90;;;;;;4952110;28;20122;-66
2021/12/19 09:42:17;;;;;;;17.48;3.90;;;7.30;99.90;;;;;;4961761;28;20106;-67
2021/12/19 09:44:43;;;;;;;16.35;3.58;;;7.30;99.90;;;;;;4950825;28;20106;-66
2021/12/19 09:47:08;;;;;;;16.00;3.42;;;7.20;99.90;;;;;;4965994;28;20121;-66
2021/12/19 09:49:36;;;;;;;12.05;3.88;;;7.30;99.90;;;;;;4962537;28;20406;-66
2021/12/19 09:52:08;;;;;;;19.52;3.50;;;7.30;99.90;;;;;;4943328;28;20052;-66
2021/12/19 09:54:36;;;;;;;13.15;3.35;;;7.30;99.90;;;;;;4964196;28;20065;-66
2021/12/19 09:57:03;;;;;;;14.43;3.55;;;7.40;99.90;;;;;;4942309;28;20094;-66
2021/12/19 09:59:28;;;;;;;13.73;3.05;;;7.40;99.90;;;;;;4961399;28;20506;-66
2021/12/19 10:01:54;;;;;;;14.30;3.33;;;7.50;99.90;;;;;;4961764;28;20034;-66
2021/12/19 10:04:40;;;;;;;14.02;3.38;;;7.50;99.90;;;;;;4960830;28;20503;-66
2021/12/19 10:07:18;;;;;;;13.50;3.60;;;7.50;99.90;;;;;;4957619;28;20062;-66
2021/12/19 10:10:00;;;;;;;13.93;3.38;;;7.50;99.90;;;;;;4941138;28;20516;-66
2021/12/19 10:14:59;;;;;;;14.02;3.55;;;7.50;99.90;;;;;;4966762;28;20038;-66
2021/12/19 10:17:25;;;;;;;18.48;3.25;;;7.50;99.90;;;;;;4963215;28;20033;-66
2021/12/19 10:19:53;;;;;;;14.88;4.05;;;7.50;99.90;;;;;;4956723;28;20035;-66
2021/12/19 10:22:43;;;;;;;16.05;2.60;;;7.50;99.90;;;;;;4966110;28;20045;-66
2021/12/19 10:25:09;;;;;;;15.00;2.90;;;7.50;99.90;;;;;;4958222;28;20499;-66
2021/12/19 10:27:41;;;;;;;14.50;2.95;;;7.50;99.90;;;;;;4963644;28;22108;-66
2021/12/19 10:30:23;;;;;;;10.25;2.83;;;7.60;99.90;;;;;;4956995;28;20070;-66
2021/12/19 10:32:57;;;;;;;14.68;3.15;;;7.50;99.90;;;;;;4947333;28;20082;-66
2021/12/19 10:35:42;;;;;;;10.77;2.38;;;7.50;99.90;;;;;;4947658;28;20058;-66
2021/12/19 10:38:16;;;;;;;13.57;2.88;;;7.50;99.90;;;;;;4947007;28;20055;-66
2021/12/19 10:40:54;;;;;;;;;;;7.50;99.90;;;;;;4966225;28;20130;-66
2021/12/19 10:43:22;;;;;;;10.38;2.92;;;7.50;99.90;;;;;;4955470;28;19928;-66
2021/12/19 10:45:51;;;;;;;11.45;2.78;;;7.60;99.90;;;;;;4948963;28;20047;-66
2021/12/19 10:48:39;;;;;;;12.02;2.88;;;7.60;99.90;;;;;;4962760;28;20034;-66
2021/12/19 10:51:11;;;;;;;10.80;2.92;;;7.60;99.90;;;;;;4960119;28;20038;-66
2021/12/19 10:53:43;;;;;;;12.77;2.70;;;7.60;99.90;;;;;;4966992;28;20538;-66
2021/12/19 10:56:15;;;;;;;13.63;3.13;;;7.60;99.90;;;;;;4947085;28;21246;-66
2021/12/19 10:59:03;;;;;;;14.85;3.00;;;7.60;99.90;;;;;;4962959;28;20039;-66
2021/12/19 11:01:36;;;;;;;14.48;2.75;;;7.60;99.90;;;;;;4960738;28;20054;-67
2021/12/19 11:04:16;;;;;;;19.55;3.47;;;7.70;99.90;;;;;;4950600;28;20061;-67
2021/12/19 11:06:59;;;;;;;21.58;3.85;;;7.70;99.90;;;;;;4961678;28;20043;-67
2021/12/19 11:09:37;;;;;;;13.90;3.33;;;7.70;99.90;;;;;;4963615;28;20117;-66
2021/12/19 11:12:05;;;;;;;17.40;3.55;;;7.70;99.90;;;;;;4963804;28;20046;-66
2021/12/19 11:14:39;;;;;;;13.35;2.88;;;7.70;99.90;;;;;;4963398;28;20472;-66
2021/12/19 11:17:09;;;;;;;15.27;3.13;;;7.70;99.90;;;;;;4961663;28;20039;-66
2021/12/19 11:19:36;;;;;;;16.23;3.38;;;7.80;99.90;;;;;;4959598;28;20086;-66
2021/12/19 11:22:02;;;;;;;11.63;3.38;;;7.80;99.90;;;;;;4957108;28;20142;-66
2021/12/19 11:24:28;;;;;;;20.73;3.22;;;7.80;99.90;;;;;;4965136;28;20042;-66
2021/12/19 11:26:57;;;;;;;11.23;2.90;;;7.80;99.90;;;;;;4967277;28;20130;-66
2021/12/19 11:29:23;;;;;;;12.05;2.85;;;7.80;99.90;;;;;;4964181;28;20039;-66
2021/12/19 11:31:54;;;;;;;11.77;2.85;;;7.90;99.90;;;;;;4963718;28;20031;-67
2021/12/19 11:34:54;;;;;;;13.57;2.80;;;7.90;99.90;;;;;;4963899;28;20046;-67
2021/12/19 11:37:25;;;;;;;11.50;2.70;;;7.90;99.90;;;;;;4965487;28;20042;-67
2021/12/19 11:39:54;;;;;;;17.73;3.15;;;7.90;99.90;;;;;;4961889;28;20039;-66
2021/12/19 11:42:35;;;;;;;14.18;2.67;;;7.90;99.90;;;;;;4964502;28;20518;-67
2021/12/19 11:48:23;;;;;;;11.05;3.13;;;7.80;99.90;;;;;;4964466;28;20054;-67
2021/12/19 11:50:50;;;;;;;11.68;2.65;;;7.80;99.90;;;;;;4963770;28;20057;-67
2021/12/19 11:53:16;;;;;;;14.30;2.58;;;7.70;99.90;;;;;;4958100;28;20059;-67
2021/12/19 11:55:54;;;;;;;13.48;2.92;;;7.80;99.90;;;;;;4967211;28;20042;-67
2021/12/19 11:58:24;;;;;;;16.50;2.75;;;7.80;99.90;;;;;;4947888;28;20109;-66
2021/12/19 12:00:55;;;;;;;13.68;2.58;;;7.70;99.90;;;;;;4962616;28;20553;-66
2021/12/19 12:03:33;;;;;;;14.63;2.78;;;7.80;99.90;;;;;;4959167;28;20085;-66
2021/12/19 12:05:59;;;;;;;10.20;2.30;;;7.90;99.90;;;;;;4965195;28;20050;-66
2021/12/19 12:08:27;;;;;;;11.18;2.13;;;7.90;99.90;;;;;;4963621;28;20039;-66
2021/12/19 12:10:57;;;;;;;16.60;2.45;;;7.90;99.90;;;;;;4958737;28;20495;-66
2021/12/19 12:13:42;;;;;;;10.90;2.45;;;7.90;99.90;;;;;;4944939;28;20047;-66
2021/12/19 12:16:24;;;;;;;12.57;3.08;;;7.90;99.90;;;;;;4945932;28;20086;-65
2021/12/19 12:18:59;;;;;;;13.30;2.63;;;7.90;99.90;;;;;;4944314;28;20050;-66
2021/12/19 12:21:41;;;;;;;17.25;3.03;;;7.90;99.90;;;;;;4941282;28;20157;-66
2021/12/19 12:24:15;;;;;;;13.63;2.60;;;7.90;99.90;;;;;;4947746;28;20062;-66
2021/12/19 12:26:49;;;;;;;10.32;2.80;;;7.90;99.90;;;;;;4949717;28;20467;-66
2021/12/19 12:29:15;;;;;;;29.08;12.65;;;8.00;99.90;;;;;;4962263;28;20043;-66
2021/12/19 12:31:43;;;;;;;11.48;3.55;;;8.00;99.90;;;;;;4963525;28;20046;-66
2021/12/19 12:34:12;;;;;;;20.95;4.82;;;8.00;99.90;;;;;;4960433;28;20054;-66
2021/12/19 12:36:38;;;;;;;13.40;2.88;;;8.00;99.90;;;;;;4945872;28;20043;-66
2021/12/19 12:39:09;;;;;;;17.83;2.92;;;8.00;99.90;;;;;;4968263;28;20094;-66
2021/12/19 12:44:09;;;;;;;12.35;2.28;;;8.00;99.90;;;;;;4965730;28;20492;-66
2021/12/19 12:46:35;;;;;;;12.02;3.42;;;8.00;99.90;;;;;;4961519;28;20088;-66
2021/12/19 12:49:02;;;;;;;116.03;86.05;;;7.90;99.90;;;;;;4962252;28;20051;-66
2021/12/19 12:51:39;;;;;;;12.55;3.85;;;7.90;99.90;;;;;;4963924;28;20051;-65
2021/12/19 12:54:30;;;;;;;16.63;3.13;;;7.90;99.90;;;;;;4961803;28;20049;-66
2021/12/19 12:56:59;;;;;;;10.73;2.50;;;8.00;99.90;;;;;;4965930;28;20472;-66
2021/12/19 12:59:32;;;;;;;13.82;1.95;;;7.90;99.90;;;;;;4962266;28;20110;-66
2021/12/19 13:04:43;;;;;;;14.00;2.00;;;7.90;99.90;;;;;;4943560;28;20516;-66
2021/12/19 13:07:16;;;;;;;16.08;2.67;;;7.90;99.90;;;;;;4948270;28;20094;-66
2021/12/19 13:09:57;;;;;;;10.20;2.03;;;8.00;99.90;;;;;;4960750;28;20047;-66
2021/12/19 13:12:32;;;;;;;11.50;1.58;;;7.90;99.90;;;;;;4965809;28;20043;-66
2021/12/19 13:15:01;;;;;;;13.32;2.45;;;7.90;99.90;;;;;;4952773;28;20049;-66
2021/12/19 13:17:40;;;;;;;15.23;2.60;;;7.90;99.90;;;;;;4949431;28;20073;-66
2021/12/19 13:20:16;;;;;;;18.55;3.17;;;7.90;99.90;;;;;;4958157;28;23643;-66
2021/12/19 13:22:52;;;;;;;15.73;2.22;;;7.90;99.90;;;;;;4964112;28;20039;-66
2021/12/19 13:25:25;;;;;;;17.05;2.85;;;8.00;99.90;;;;;;4962824;28;20146;-66
2021/12/19 13:28:00;;;;;;;15.18;2.75;;;7.90;99.90;;;;;;4966560;28;20058;-66
2021/12/19 13:30:29;;;;;;;17.05;3.15;;;7.90;99.90;;;;;;4969002;28;20035;-66
2021/12/19 13:32:57;;;;;;;16.55;2.47;;;8.00;99.90;;;;;;4962979;28;20043;-66
2021/12/19 13:35:37;;;;;;;16.90;2.45;;;7.90;99.90;;;;;;4948626;28;20475;-66
2021/12/19 13:38:06;;;;;;;18.95;2.72;;;7.90;99.90;;;;;;4946018;28;20039;-66
2021/12/19 13:40:49;;;;;;;16.65;2.60;;;8.00;99.90;;;;;;4966141;28;20047;-66
2021/12/19 13:43:36;;;;;;;16.35;2.50;;;7.90;99.90;;;;;;4943208;28;20071;-66
2021/12/19 13:46:05;;;;;;;16.05;2.38;;;7.90;99.90;;;;;;4961780;28;20542;-66
2021/12/19 13:49:00;;;;;;;13.68;2.65;;;7.90;99.90;;;;;;4941948;28;20452;-66
2021/12/19 13:51:32;;;;;;;16.75;2.40;;;7.90;99.90;;;;;;4925902;28;20166;-66
2021/12/19 13:54:02;;;;;;;18.50;2.53;;;7.90;99.90;;;;;;4965853;28;20046;-67
2021/12/19 13:56:30;;;;;;;12.48;2.08;;;7.90;99.90;;;;;;4953052;28;20054;-67
2021/12/19 13:58:59;;;;;;;13.88;2.42;;;7.90;99.90;;;;;;4946114;28;20043;-67
2021/12/19 14:01:30;;;;;;;19.67;2.63;;;7.90;99.90;;;;;;4964287;28;20042;-67
2021/12/19 14:03:58;;;;;;;16.42;3.17;;;8.00;99.90;;;;;;4957481;28;20456;-67
2021/12/19 14:06:32;;;;;;;48.90;33.35;;;8.00;99.90;;;;;;4967466;28;20038;-67
2021/12/19 14:09:22;;;;;;;26.75;8.32;;;8.00;99.90;;;;;;4965018;28;20471;-67
2021/12/19 14:11:56;;;;;;;16.50;3.00;;;8.00;99.90;;;;;;4962368;28;20038;-67
2021/12/19 14:14:31;;;;;;;20.15;3.15;;;7.90;99.90;;;;;;4960926;28;20046;-67
2021/12/19 14:17:09;;;;;;;19.08;3.83;;;7.90;99.90;;;;;;4963998;28;20078;-67